createdAt,value
2023-02-27T06:32:59.924Z,100856.67
2023-02-27T06:35:26.378Z,101022.75
2023-02-27T06:49:45.137Z,101023.48
2023-02-27T07:04:34.158Z,101047.23
2023-02-27T07:34:14.367Z,101067.73
2023-02-27T07:49:05.724Z,101066.66
2023-02-27T08:03:55.339Z,101087.36
2023-02-27T08:18:45.027Z,101082.11
2023-02-27T08:33:41.504Z,101077.55
2023-02-27T08:48:26.340Z,101093.03
2023-02-27T09:03:17.141Z,101089.88
2023-02-27T09:18:07.959Z,101088.34
2023-02-27T09:32:58.256Z,101092.83
2023-02-27T09:47:48.751Z,101099.55
2023-02-27T10:02:48.384Z,101129.34
2023-02-27T10:17:48.325Z,101111.95
2023-02-27T10:32:34.118Z,101127.31
2023-02-27T10:47:24.407Z,101137.86
2023-02-27T11:02:16.875Z,101147.48
2023-02-27T11:17:10.078Z,101140.47
2023-02-27T11:32:10.198Z,101152.27
2023-02-27T11:47:14.954Z,101136.50
2023-02-27T12:02:22.487Z,101140.80
2023-02-27T12:17:27.095Z,101121.80
2023-02-27T12:32:27.439Z,101117.27
2023-02-27T12:47:45.057Z,101111.86
2023-02-27T13:02:54.153Z,101092.05
2023-02-27T13:17:53.589Z,101076.16
2023-02-27T13:33:05.632Z,101074.02
2023-02-27T13:48:01.566Z,101073.03
2023-02-27T14:03:00.323Z,101072.31
2023-02-27T14:17:54.647Z,101061.64
2023-02-27T14:32:36.257Z,101071.02
2023-02-27T14:47:32.047Z,101061.36
2023-02-27T15:02:27.054Z,101068.03
2023-02-27T15:17:17.234Z,101081.81
2023-02-27T15:32:05.587Z,101091.96
2023-02-27T15:46:55.939Z,101091.96
2023-02-27T16:01:46.633Z,101108.67
2023-02-27T16:16:36.454Z,101129.84
2023-02-27T16:31:26.721Z,101147.36
2023-02-27T16:46:16.070Z,101163.56
2023-02-27T17:01:05.823Z,101167.98
2023-02-27T17:15:55.251Z,101179.37
2023-02-27T17:30:45.619Z,101207.38
2023-02-27T17:45:35.833Z,101221.79
2023-02-27T18:00:26.304Z,101232.30
2023-02-27T18:15:15.858Z,101248.02
2023-02-27T18:30:07.054Z,101252.40
2023-02-27T18:44:57.239Z,101255.45
2023-02-27T18:59:47.071Z,101259.77
2023-02-27T19:14:36.806Z,101264.13
2023-02-27T19:29:26.419Z,101262.34
2023-02-27T19:44:17.133Z,101258.41
2023-02-27T19:59:06.582Z,101251.38
2023-02-27T20:13:55.235Z,101257.37
2023-02-27T20:28:45.375Z,101269.05
2023-02-27T20:43:34.801Z,101276.44
2023-02-27T20:58:24.640Z,101275.15
2023-02-27T21:13:14.034Z,101267.66
2023-02-27T21:28:03.654Z,101263.14
2023-02-27T21:42:52.557Z,101258.19
2023-02-27T21:57:42.350Z,101256.66
2023-02-27T22:12:32.220Z,101245.02
2023-02-27T22:27:22.309Z,101243.66
2023-02-27T22:42:11.393Z,101233.94
2023-02-27T23:11:56.462Z,101236.42
